createdAt,value
2022-11-15T00:00:03.130Z,1016.4
2022-11-15T00:05:03.151Z,1016.42
2022-11-15T00:10:02.853Z,1016.33
2022-11-15T00:15:02.705Z,1016.38
2022-11-15T00:20:02.568Z,1016.26
2022-11-15T00:25:03.122Z,1016.19
2022-11-15T00:30:03.286Z,1016.18
2022-11-15T00:35:02.854Z,1016.17
2022-11-15T00:40:02.430Z,1016.12
2022-11-15T00:45:02.456Z,1016.31
2022-11-15T00:50:02.954Z,1016.29
2022-11-15T00:55:04.301Z,1016.26
2022-11-15T01:00:02.683Z,1016.13
2022-11-15T01:05:03.324Z,1016.1
2022-11-15T01:10:02.929Z,1016.2
2022-11-15T01:15:03.006Z,1016.12
2022-11-15T01:20:02.894Z,1016.06
2022-11-15T01:25:03.111Z,1015.96
2022-11-15T01:30:04.353Z,1015.82
2022-11-15T01:35:02.460Z,1015.77
2022-11-15T01:40:02.710Z,1015.67
2022-11-15T01:45:02.722Z,1015.63
2022-11-15T01:50:03.279Z,1015.55
2022-11-15T01:55:04.353Z,1015.59
2022-11-15T02:00:02.579Z,1015.51
2022-11-15T02:05:03.429Z,1015.44
2022-11-15T02:10:03.068Z,1015.47
2022-11-15T02:15:02.968Z,1015.47
2022-11-15T02:20:03.007Z,1015.43
2022-11-15T02:25:02.830Z,1015.34
2022-11-15T02:30:02.699Z,1015.27
2022-11-15T02:35:03.340Z,1015.31
2022-11-15T02:40:02.904Z,1015.22
2022-11-15T02:45:03.038Z,1015.19
2022-11-15T02:50:02.889Z,1015.07
2022-11-15T02:55:04.084Z,1015.11
2022-11-15T03:00:03.319Z,1015.01
2022-11-15T03:05:02.882Z,1014.97
2022-11-15T03:10:02.714Z,1014.86
2022-11-15T03:15:02.642Z,1014.83
2022-11-15T03:20:03.401Z,1014.86
2022-11-15T03:25:02.951Z,1014.88
2022-11-15T03:30:02.572Z,1014.97
2022-11-15T03:35:02.469Z,1014.95
2022-11-15T03:40:03.267Z,1014.93
2022-11-15T03:45:02.816Z,1014.92
2022-11-15T03:50:02.736Z,1014.91
2022-11-15T03:55:04.730Z,1014.96
2022-11-15T04:00:03.305Z,1014.98
2022-11-15T04:05:02.671Z,1014.91
2022-11-15T04:10:02.314Z,1014.84
2022-11-15T04:15:03.231Z,1014.77
2022-11-15T04:20:03.348Z,1014.76
2022-11-15T04:25:03.070Z,1014.86
2022-11-15T04:30:02.688Z,1014.8
2022-11-15T04:35:03.203Z,1014.84
2022-11-15T04:40:03.012Z,1014.66
2022-11-15T04:45:02.913Z,1014.73
2022-11-15T04:50:02.704Z,1014.77
2022-11-15T04:55:09.040Z,1014.8
2022-11-15T05:00:02.334Z,1014.8
2022-11-15T05:05:03.209Z,1014.7
2022-11-15T05:10:03.165Z,1014.65
2022-11-15T05:15:02.962Z,1014.64
2022-11-15T05:20:02.542Z,1014.56
2022-11-15T05:25:03.173Z,1014.56
2022-11-15T05:30:02.850Z,1014.56
2022-11-15T05:35:02.696Z,1014.51
2022-11-15T05:40:02.573Z,1014.46
2022-11-15T05:45:03.413Z,1014.52
2022-11-15T05:50:02.880Z,1014.6
2022-11-15T05:55:04.363Z,1014.6
2022-11-15T06:00:02.722Z,1014.51
2022-11-15T06:05:03.305Z,1014.51
2022-11-15T06:10:02.949Z,1014.45
2022-11-15T06:15:03.049Z,1014.45
2022-11-15T06:20:02.952Z,1014.42
2022-11-15T06:25:05.326Z,1014.49
2022-11-15T06:30:02.640Z,1014.46
2022-11-15T06:35:03.408Z,1014.51
2022-11-15T06:40:02.923Z,1014.5
2022-11-15T06:45:02.865Z,1014.65
2022-11-15T06:50:02.764Z,1014.72
2022-11-15T06:55:03.813Z,1014.78
2022-11-15T07:00:02.462Z,1014.76
2022-11-15T07:05:03.122Z,1014.78
2022-11-15T07:10:03.014Z,1014.74
2022-11-15T07:15:02.946Z,1014.81
2022-11-15T07:20:02.797Z,1014.83
2022-11-15T07:25:03.623Z,1014.83
2022-11-15T07:30:02.352Z,1014.77
2022-11-15T07:35:03.174Z,1014.66
2022-11-15T07:40:03.396Z,1014.71
2022-11-15T07:45:03.272Z,1014.7
2022-11-15T07:50:02.823Z,1014.83
2022-11-15T07:55:03.688Z,1014.82
2022-11-15T08:00:03.284Z,1014.84
2022-11-15T08:05:03.156Z,1014.79
2022-11-15T08:10:02.929Z,1014.81
2022-11-15T08:15:02.781Z,1014.75
2022-11-15T08:20:02.557Z,1014.79
2022-11-15T08:25:03.497Z,1014.85
2022-11-15T08:30:03.090Z,1014.81
2022-11-15T08:35:02.605Z,1014.77
2022-11-15T08:40:02.470Z,1014.68
2022-11-15T08:45:03.394Z,1014.74
2022-11-15T08:50:03.243Z,1014.58
2022-11-15T08:55:04.227Z,1014.63
2022-11-15T09:00:02.452Z,1014.53
2022-11-15T09:05:03.458Z,1014.56
2022-11-15T09:10:03.312Z,1014.6
2022-11-15T09:15:03.118Z,1014.64
2022-11-15T09:20:02.671Z,1014.69
2022-11-15T09:25:02.326Z,1014.64
2022-11-15T09:30:02.533Z,1014.6
2022-11-15T09:35:03.455Z,1014.64
2022-11-15T09:40:03.211Z,1014.51
2022-11-15T09:45:02.861Z,1014.49
2022-11-15T09:50:02.395Z,1014.57
2022-11-15T09:55:04.467Z,1014.59
2022-11-15T10:00:45.756Z,1014.57
2022-11-15T10:05:03.269Z,1014.46
2022-11-15T10:10:02.839Z,1014.5
2022-11-15T10:15:02.489Z,1014.38
2022-11-15T10:20:06.553Z,1014.28
2022-11-15T10:25:03.148Z,1014.2
2022-11-15T10:30:02.989Z,1014.1
2022-11-15T10:35:02.655Z,1013.98
2022-11-15T10:40:03.481Z,1013.88
2022-11-15T10:45:03.272Z,1013.8
2022-11-15T10:50:02.794Z,1013.68
2022-11-15T10:55:03.775Z,1013.61
2022-11-15T11:00:02.418Z,1013.55
2022-11-15T11:05:03.249Z,1013.47
2022-11-15T11:10:03.565Z,1013.43
2022-11-15T11:15:03.186Z,1013.32
2022-11-15T11:20:02.653Z,1013.35
2022-11-15T11:25:02.547Z,1013.36
2022-11-15T11:30:03.468Z,1013.33
2022-11-15T11:35:03.142Z,1013.35
2022-11-15T11:40:10.984Z,1013.24
2022-11-15T11:45:02.837Z,1013.09
2022-11-15T11:50:02.712Z,1012.93
2022-11-15T11:55:03.757Z,1012.84
2022-11-15T12:00:03.346Z,1012.84
2022-11-15T12:05:02.936Z,1012.81
2022-11-15T12:10:02.552Z,1012.9
2022-11-15T12:15:02.513Z,1012.74
2022-11-15T12:20:03.413Z,1012.73
2022-11-15T12:25:03.139Z,1012.57
2022-11-15T12:30:02.714Z,1012.52
2022-11-15T12:35:02.233Z,1012.48
2022-11-15T12:40:04.611Z,1012.43
2022-11-15T12:45:03.054Z,1012.3
2022-11-15T12:50:02.761Z,1012.36
2022-11-15T12:55:04.623Z,1012.12
2022-11-15T13:00:03.223Z,1012.21
2022-11-15T13:05:02.634Z,1012.2
2022-11-15T13:10:03.236Z,1012.15
2022-11-15T13:15:03.226Z,1012.1
2022-11-15T13:20:02.778Z,1011.85
2022-11-15T13:25:02.382Z,1011.94
2022-11-15T13:30:03.432Z,1011.85
2022-11-15T13:35:02.515Z,1011.89
2022-11-15T13:40:03.589Z,1011.8
2022-11-15T13:45:03.056Z,1011.78
2022-11-15T13:50:02.586Z,1011.86
2022-11-15T13:55:03.725Z,1011.76
2022-11-15T14:00:03.259Z,1011.78
2022-11-15T14:05:03.202Z,1011.84
2022-11-15T14:10:02.644Z,1011.8
2022-11-15T14:15:02.314Z,1011.73
2022-11-15T14:20:03.360Z,1011.75
2022-11-15T14:25:02.960Z,1011.7
2022-11-15T14:30:02.906Z,1011.69
2022-11-15T14:35:02.465Z,1011.63
2022-11-15T14:40:03.073Z,1011.66
2022-11-15T14:45:03.575Z,1011.5
2022-11-15T14:50:03.013Z,1011.6
2022-11-15T14:55:04.408Z,1011.53
2022-11-15T15:00:02.505Z,1011.49
2022-11-15T15:05:03.212Z,1011.47
2022-11-15T15:10:32.863Z,1011.39
2022-11-15T15:15:03.592Z,1011.4
2022-11-15T15:20:03.294Z,1011.38
2022-11-15T15:25:03.008Z,1011.32
2022-11-15T15:30:02.748Z,1011.28
2022-11-15T15:35:03.345Z,1011.23
2022-11-15T15:40:03.569Z,1011.22
2022-11-15T15:45:02.714Z,1011.16
2022-11-15T15:50:02.781Z,1011.2
2022-11-15T15:55:04.418Z,1011.15
2022-11-15T16:00:02.997Z,1011.07
2022-11-15T16:05:02.769Z,1011.07
2022-11-15T16:10:02.597Z,1011.02
2022-11-15T16:15:03.315Z,1011.17
2022-11-15T16:20:03.169Z,1011.07
2022-11-15T16:25:02.548Z,1011.04
2022-11-15T16:30:07.879Z,1010.9
2022-11-15T16:35:02.479Z,1010.97
2022-11-15T16:40:03.541Z,1010.81
2022-11-15T16:45:02.778Z,1010.8
2022-11-15T16:50:03.425Z,1010.76
2022-11-15T16:55:04.154Z,1010.71
2022-11-15T17:00:02.789Z,1010.68
2022-11-15T17:05:15.938Z,1010.64
2022-11-15T17:10:02.933Z,1010.66
2022-11-15T17:15:02.760Z,1010.58
2022-11-15T17:20:03.479Z,1010.6
2022-11-15T17:25:03.372Z,1010.62
2022-11-15T17:30:03.217Z,1010.7
2022-11-15T17:35:02.999Z,1010.6
2022-11-15T17:40:02.423Z,1010.53
2022-11-15T17:45:10.754Z,1010.55
2022-11-15T17:50:03.380Z,1010.62
2022-11-15T17:55:04.096Z,1010.56
2022-11-15T18:00:03.366Z,1010.59
2022-11-15T18:05:03.073Z,1010.57
2022-11-15T18:10:02.924Z,1010.61
2022-11-15T18:15:02.919Z,1010.53
2022-11-15T18:20:02.502Z,1010.6
2022-11-15T18:25:03.030Z,1010.56
2022-11-15T18:30:03.133Z,1010.52
2022-11-15T18:35:03.180Z,1010.45
2022-11-15T18:40:02.526Z,1010.42
2022-11-15T18:45:03.123Z,1010.32
2022-11-15T18:50:03.244Z,1010.48
2022-11-15T18:55:03.812Z,1010.38
2022-11-15T19:00:03.373Z,1010.47
2022-11-15T19:05:03.238Z,1010.36
2022-11-15T19:10:03.493Z,1010.33
2022-11-15T19:15:06.258Z,1010.29
2022-11-15T19:20:03.325Z,1010.28
2022-11-15T19:25:02.695Z,1010.18
2022-11-15T19:30:03.250Z,1010.13
2022-11-15T19:35:03.444Z,1010.06
2022-11-15T19:40:02.491Z,1010.05
2022-11-15T19:45:03.552Z,1010.09
2022-11-15T19:50:03.346Z,1010.08
2022-11-15T19:55:04.536Z,1010.04
2022-11-15T20:05:02.421Z,1009.84
2022-11-15T20:10:03.278Z,1009.93
2022-11-15T20:15:02.799Z,1009.86
2022-11-15T20:20:02.785Z,1009.97
2022-11-15T20:25:03.384Z,1010.06
2022-11-15T20:30:03.056Z,1009.94
2022-11-15T20:35:03.042Z,1009.83
2022-11-15T20:40:02.320Z,1009.85
2022-11-15T20:45:03.381Z,1009.92
2022-11-15T20:50:41.425Z,1009.82
2022-11-15T20:55:03.938Z,1009.76
2022-11-15T21:00:08.785Z,1009.77
2022-11-15T21:05:02.341Z,1009.57
2022-11-15T21:10:03.257Z,1009.67
2022-11-15T21:15:03.236Z,1009.62
2022-11-15T21:20:02.661Z,1009.72
2022-11-15T21:25:02.380Z,1009.79
2022-11-15T21:30:03.188Z,1009.65
2022-11-15T21:35:03.141Z,1009.53
2022-11-15T21:40:03.503Z,1009.53
2022-11-15T21:45:03.396Z,1009.5
2022-11-15T21:50:02.572Z,1009.44
2022-11-15T21:55:04.505Z,1009.3
2022-11-15T22:00:03.092Z,1009.31
2022-11-15T22:05:02.819Z,1009.36
2022-11-15T22:10:03.075Z,1009.45
2022-11-15T22:15:03.389Z,1009.4
2022-11-15T22:20:16.797Z,1009.33
2022-11-15T22:25:03.041Z,1009.24
2022-11-15T22:30:03.038Z,1009.2
2022-11-15T22:35:03.248Z,1009.26
2022-11-15T22:40:02.828Z,1009.25
2022-11-15T22:45:02.439Z,1009.22
2022-11-15T22:50:03.231Z,1009.2
2022-11-15T22:55:04.310Z,1009.15
2022-11-15T23:00:03.234Z,1009.14
2022-11-15T23:05:02.437Z,1009.17
2022-11-15T23:10:03.078Z,1009.1
2022-11-15T23:15:02.677Z,1009.04
2022-11-15T23:20:42.313Z,1008.94
2022-11-15T23:25:02.922Z,1008.96
2022-11-15T23:30:03.367Z,1008.91
2022-11-15T23:35:03.142Z,1009.05
2022-11-15T23:40:02.673Z,1009.04
2022-11-15T23:45:03.596Z,1009.01
2022-11-15T23:50:03.143Z,1008.92
2022-11-15T23:55:03.724Z,1008.93
